Latest Coastal Weather Observations for Hindmarsh Island

IDS60701

Issued at 7:21 pm CDT Sunday 25 October 2020 (issued every 10 minutes, with the page automatically refreshed every 10 minutes)

About coastal observations | Map of coastal stations | Coastal observations for SA | Marine services | Other Formats
Station Details ID: 023894 Name: HINDMARSH ISLAND AWS Lat: -35.52 Lon: 138.82 Height: 11.0 m
Data from the previous 72 hours. | See also: Recent months at Hindmarsh Island
Date/Time
CDT
Wind Sea
Height
m
Swell Vis
km
Cloud Weather Temp
°C
Press
MSL
hPa
Rain since
9am
mm
Dir  Spd
kts
Gust
kts
Height
m
Period
s
Dir
25/07:00pm SSE 25 29 - - - - - - - 12.7 1022.9 0.2
25/06:30pm SSE 24 30 - - - - - - - 13.0 1022.6 0.2
25/06:00pm SSE 22 26 - - - - - - - 12.9 1022.6 0.2
25/05:30pm SSE 22 28 - - - - - - - 13.6 1022.6 0.2
25/05:00pm S 20 24 - - - - - - - 12.9 1022.7 0.2
25/04:30pm SSE 23 27 - - - - - - - 13.0 1022.6 0.2
25/04:00pm SSE 20 25 - - - - - - - 13.3 1022.8 0.2
25/03:30pm SSE 20 25 - - - - - - - 13.4 1022.9 0.2
25/03:00pm SSE 18 22 - - - - - - - 13.6 1023.2 0.2
25/02:30pm SSE 20 24 - - - - - - - 14.3 1023.6 0.2
25/02:00pm SSE 19 24 - - - - - - - 14.2 1023.7 0.2
25/01:30pm SSE 18 23 - - - - - - - 14.0 1023.8 0.2
25/01:00pm SE 17 23 - - - - - - - 13.6 1023.9 0.2
25/12:30pm SSE 18 24 - - - - - - - 12.8 1024.3 0.2
25/12:00pm SE 20 25 - - - - - - - 13.3 1024.4 0.2
25/11:30am ESE 16 23 - - - - - - - 12.9 1024.5 0.2
25/11:00am ESE 25 30 - - - - - - - 11.5 1024.3 0.2
25/10:30am ESE 22 27 - - - - - - - 11.6 1024.6 0.2
25/10:03am ESE 15 25 - - - - - - - 11.1 1024.6 0.2
25/10:00am ESE 13 21 - - - - - - - 10.7 1024.7 0.2
25/09:30am ESE 13 18 - - - - - - - 9.3 1024.8 0.2
25/09:00am ESE 14 17 - - - - - - Recent precip. 9.5 1024.4 2.2
25/08:30am E 13 18 - - - - - - - 8.7 1024.1 2.2
25/08:00am E 12 17 - - - - - - - 8.4 1023.9 1.8
25/07:30am E 13 19 - - - - - - - 7.9 1023.3 1.2
25/07:00am ESE 15 21 - - - - - - - 8.4 1022.5 1.0
25/06:30am E 10 15 - - - - - - - 8.5 1022.1 1.0
25/06:00am S 7 10 - - - - - - Recent precip. 9.8 1021.4 0.4
25/05:30am S 21 27 - - - - - - - 10.2 1021.2 0.2
25/05:00am SSE 18 23 - - - - - - - 11.2 1020.5 0.2
25/04:30am S 22 27 - - - - - - - 11.3 1020.1 0.2
25/04:00am SSE 23 31 - - - - - - - 11.5 1019.6 0.2
25/03:30am SSE 21 25 - - - - - - - 11.7 1019.7 0.2
25/03:00am SSE 21 25 - - - - - - - 12.0 1019.4 0.2
25/02:30am SSE 21 25 - - - - - - - 11.5 1019.4 0.2
25/02:00am S 24 31 - - - - - - - 10.4 1019.6 0.2
25/01:50am S 19 29 - - - - - - - 12.0 1019.1 0.0
25/01:30am SSE 17 21 - - - - - - - 12.1 1019.4 0.0
25/01:00am SSE 17 21 - - - - - - - 12.0 1019.5 0.0
25/12:30am S 21 26 - - - - - - - 12.3 1019.0 0.0
25/12:00am S 20 23 - - - - - - - 12.2 1019.0 0.0
 
Date/Time
CDT
Wind Sea
Height
m
Swell Vis
km
Cloud Weather Temp
°C
Press
MSL
hPa
Rain since
9am
mm
Dir  Spd
kts
Gust
kts
Height
m
Period
s
Dir
24/11:30pm SSE 14 17 - - - - - - - 12.0 1019.2 0.0
24/11:00pm S 21 27 - - - - - - - 12.1 1018.9 0.0
24/10:30pm S 16 20 - - - - - - - 12.5 1018.9 0.0
24/10:00pm S 19 24 - - - - - - - 12.6 1018.8 0.0
24/09:30pm SSE 17 20 - - - - - - - 12.3 1018.7 0.0
24/09:00pm S 25 31 - - - - - - - 12.2 1018.2 0.0
24/08:30pm S 19 25 - - - - - - - 12.8 1018.1 0.0
24/08:00pm S 20 24 - - - - - - - 12.8 1018.0 0.0
24/07:30pm S 18 24 - - - - - - - 13.0 1017.7 0.0
24/07:00pm SSW 20 25 - - - - - - - 13.1 1017.3 0.0
24/06:30pm S 24 29 - - - - - - - 12.8 1016.8 0.0
24/06:00pm S 22 26 - - - - - - - 13.8 1016.3 0.0
24/05:30pm S 23 28 - - - - - - - 13.4 1016.0 0.0
24/05:00pm S 22 26 - - - - - - - 13.8 1015.8 0.0
24/04:30pm S 22 28 - - - - - - - 14.0 1015.5 0.0
24/04:00pm S 21 25 - - - - - - - 14.8 1015.3 0.0
24/03:30pm S 22 27 - - - - - - - 14.7 1015.5 0.0
24/03:00pm S 22 26 - - - - - - - 14.2 1015.4 0.0
24/02:30pm S 21 27 - - - - - - - 14.0 1015.4 0.0
24/02:00pm S 22 27 - - - - - - - 14.3 1015.2 0.0
24/01:30pm SSW 21 26 - - - - - - - 14.2 1014.9 0.0
24/01:00pm SSW 25 31 - - - - - - - 13.3 1014.7 0.0
24/12:30pm SSW 26 31 - - - - - - - 15.1 1014.8 0.0
24/12:00pm S 24 27 - - - - - - - 15.0 1014.6 0.0
24/11:30am S 27 33 - - - - - - - 12.8 1014.1 0.0
24/11:07am SSW 18 28 - - - - - - - 12.6 1014.0 0.0
24/11:00am SSW 20 26 - - - - - - - 12.7 1014.4 0.0
24/10:30am S 23 29 - - - - - - - 14.3 1013.5 0.0
24/10:00am SSW 23 30 - - - - - - - 14.0 1013.2 0.0
24/09:30am S 22 27 - - - - - - - 14.8 1013.0 0.0
24/09:00am S 23 27 - - - - - - - 15.0 1012.7 0.2
24/08:30am S 23 28 - - - - - - - 13.9 1012.0 0.2
24/08:00am S 25 28 - - - - - - - 14.1 1011.7 0.2
24/07:30am S 21 26 - - - - - - - 13.5 1011.7 0.2
24/07:00am SSW 21 24 - - - - - - - 13.6 1011.3 0.2
24/06:30am S 22 27 - - - - - - - 13.5 1010.9 0.2
24/06:00am SSW 17 21 - - - - - - - 13.3 1010.9 0.2
24/05:30am S 21 24 - - - - - - - 13.3 1010.5 0.2
24/05:00am S 23 28 - - - - - - - 13.2 1010.1 0.2
24/04:30am S 22 27 - - - - - - - 13.3 1010.0 0.2
24/04:00am S 26 31 - - - - - - - 13.1 1009.6 0.2
24/03:30am S 25 29 - - - - - - - 13.5 1009.1 0.2
24/03:00am S 23 27 - - - - - - - 13.5 1009.1 0.2
24/02:30am S 23 28 - - - - - - - 13.4 1009.2 0.2
24/02:00am S 24 28 - - - - - - - 13.6 1009.4 0.2
24/01:30am S 24 29 - - - - - - - 13.6 1009.4 0.2
24/01:00am S 24 30 - - - - - - - 13.6 1009.5 0.2
24/12:30am S 24 31 - - - - - - - 13.5 1009.2 0.2
24/12:00am S 24 30 - - - - - - - 13.7 1009.1 0.2
 
Date/Time
CDT
Wind Sea
Height
m
Swell Vis
km
Cloud Weather Temp
°C
Press
MSL
hPa
Rain since
9am
mm
Dir  Spd
kts
Gust
kts
Height
m
Period
s
Dir
23/11:30pm S 24 29 - - - - - - - 13.9 1009.0 0.2
23/11:00pm S 24 30 - - - - - - - 13.9 1008.5 0.2
23/10:30pm S 26 31 - - - - - - - 14.1 1008.3 0.2
23/10:00pm S 25 32 - - - - - - - 14.3 1008.0 0.2
23/09:30pm S 27 34 - - - - - - - 14.3 1007.4 0.2
23/09:00pm S 27 33 - - - - - - - 14.4 1006.9 0.2
23/08:30pm S 27 33 - - - - - - - 14.4 1006.7 0.2
23/08:00pm S 26 31 - - - - - - - 14.4 1006.6 0.2
23/07:30pm S 26 32 - - - - - - - 14.5 1006.2 0.2
23/07:00pm S 26 31 - - - - - - - 14.6 1006.4 0.2
23/06:30pm S 25 30 - - - - - - - 14.6 1006.2 0.2
23/06:00pm S 25 31 - - - - - - - 14.4 1005.6 0.2
23/05:30pm S 24 30 - - - - - - - 14.5 1005.1 0.2
23/05:00pm S 23 27 - - - - - - - 14.7 1004.7 0.2
23/04:30pm S 23 28 - - - - - - - 14.9 1004.5 0.2
23/04:00pm S 21 24 - - - - - - - 15.2 1004.5 0.2
23/03:30pm S 19 22 - - - - - - - 15.2 1004.9 0.2
23/03:00pm S 19 23 - - - - - - - 15.3 1004.8 0.0
23/02:30pm S 17 21 - - - - - - - 15.2 1005.1 0.0
23/02:00pm S 17 21 - - - - - - - 15.4 1005.4 0.0
23/01:30pm S 19 22 - - - - - - - 15.4 1005.0 0.0
23/01:00pm SSW 16 20 - - - - - - - 16.1 1005.1 0.0
23/12:30pm SSW 15 17 - - - - - - - 17.2 1005.2 0.0
23/12:00pm SSW 14 17 - - - - - - - 16.8 1005.5 0.0
23/11:30am S 11 13 - - - - - - - 16.8 1006.1 0.0
23/11:00am SSW 10 13 - - - - - - - 17.0 1006.4 0.0
23/10:30am SSE 10 13 - - - - - - - 17.2 1006.2 0.0
23/10:00am S 9 11 - - - - - - - 16.4 1006.2 0.0
23/09:30am S 8 11 - - - - - - - 16.3 1006.6 0.0
23/09:00am S 11 13 - - - - - - - 16.0 1006.8 1.2
23/08:30am SSE 9 11 - - - - - - - 15.9 1006.9 1.2
23/08:00am S 7 9 - - - - - - - 15.7 1006.9 1.2
23/07:30am SSW 8 11 - - - - - - - 15.6 1006.8 1.2
23/07:00am SSE 10 12 - - - - - - - 15.3 1005.9 1.2
23/06:30am SSE 10 12 - - - - - - - 15.2 1005.7 1.2
23/06:00am S 11 12 - - - - - - - 15.3 1005.8 1.2
23/05:30am S 10 11 - - - - - - - 15.1 1005.6 1.2
23/05:00am SSW 11 13 - - - - - - - 15.3 1005.5 1.2
23/04:30am SW 11 13 - - - - - - - 15.4 1005.4 1.2
23/04:00am SSW 11 13 - - - - - - - 15.4 1005.5 1.2
23/03:30am SW 6 10 - - - - - - - 15.2 1006.0 1.2
23/03:00am N 4 4 - - - - - - - 14.7 1005.8 1.2
23/02:30am E 5 6 - - - - - - - 14.6 1006.3 1.2
23/02:00am NW 2 4 - - - - - - - 15.4 1007.3 1.2
23/01:30am NW 7 9 - - - - - - - 15.5 1008.0 0.6
23/01:00am NW 3 3 - - - - - - - 15.0 1007.0 0.6
23/12:30am NNW 6 8 - - - - - - - 15.0 1007.3 0.6
23/12:00am N 6 7 - - - - - - - 14.8 1007.5 0.6
 
Date/Time
CDT
Wind Sea
Height
m
Swell Vis
km
Cloud Weather Temp
°C
Press
MSL
hPa
Rain since
9am
mm
Dir  Spd
kts
Gust
kts
Height
m
Period
s
Dir
22/11:30pm NNE 8 9 - - - - - - - 14.7 1007.8 0.6
22/11:00pm NE 5 8 - - - - - - - 14.8 1008.6 0.6
22/10:30pm N 6 8 - - - - - - - 14.9 1009.3 0.6
22/10:00pm NNE 2 4 - - - - - - - 14.8 1009.6 0.6
22/09:30pm NNW 5 6 - - - - - - - 15.1 1010.4 0.2
22/09:00pm W 10 14 - - - - - - - 15.6 1011.2 0.0
22/08:58pm W 9 13 - - - - - - - 15.6 1011.0 0.0
22/08:30pm SSW 6 7 - - - - - - - 15.3 1009.0 0.0
22/08:00pm SSW 9 10 - - - - - - - 15.3 1008.8 0.0
22/07:30pm WSW 6 8 - - - - - - - 15.3 1009.4 0.0

Other formats

Comma delimited format used in spreadsheet applications
http://www.bom.gov.au/fwo/IDS60701/IDS60701.94677.axf

JavaScript Object Notation format (JSON) in row-major order
http://www.bom.gov.au/fwo/IDS60701/IDS60701.94677.json

Data quality

Most of these data are generated automatically and are frequently updated. Quality checks on data are not normally performed. It is possible for incorrect values to appear. Refer to information at About Latest Weather Observations and please check the disclaimer before using these data.